sensor_id;sensor_type;location;lat;lon;timestamp;P1;durP1;ratioP1;P2;durP2;ratioP2
31284;SDS011;56605;51.516;6.742;2022-08-07T00:00:03;3.97;;;2.55;;
31284;SDS011;56605;51.516;6.742;2022-08-07T00:02:29;4.35;;;2.55;;
31284;SDS011;56605;51.516;6.742;2022-08-07T00:04:54;4.50;;;2.75;;
31284;SDS011;56605;51.516;6.742;2022-08-07T00:07:19;2.97;;;2.38;;
31284;SDS011;56605;51.516;6.742;2022-08-07T00:09:45;5.20;;;3.42;;
31284;SDS011;56605;51.516;6.742;2022-08-07T00:12:10;4.53;;;3.15;;
31284;SDS011;56605;51.516;6.742;2022-08-07T00:14:35;5.90;;;3.40;;
31284;SDS011;56605;51.516;6.742;2022-08-07T00:17:01;3.92;;;2.95;;
31284;SDS011;56605;51.516;6.742;2022-08-07T00:19:26;4.30;;;3.30;;
31284;SDS011;56605;51.516;6.742;2022-08-07T00:21:52;4.97;;;3.08;;
31284;SDS011;56605;51.516;6.742;2022-08-07T00:24:17;6.35;;;3.22;;
31284;SDS011;56605;51.516;6.742;2022-08-07T00:26:43;7.15;;;3.72;;
31284;SDS011;56605;51.516;6.742;2022-08-07T00:29:08;3.42;;;2.70;;
31284;SDS011;56605;51.516;6.742;2022-08-07T00:31:33;3.85;;;2.70;;
31284;SDS011;56605;51.516;6.742;2022-08-07T00:33:59;3.83;;;2.78;;
31284;SDS011;56605;51.516;6.742;2022-08-07T00:36:24;5.30;;;3.03;;
31284;SDS011;56605;51.516;6.742;2022-08-07T00:38:50;5.70;;;3.13;;
31284;SDS011;56605;51.516;6.742;2022-08-07T00:41:15;4.07;;;2.30;;
31284;SDS011;56605;51.516;6.742;2022-08-07T00:43:48;3.80;;;2.10;;
31284;SDS011;56605;51.516;6.742;2022-08-07T00:46:14;4.63;;;3.05;;
31284;SDS011;56605;51.516;6.742;2022-08-07T00:48:39;3.80;;;2.83;;
31284;SDS011;56605;51.516;6.742;2022-08-07T00:51:04;5.00;;;2.80;;
31284;SDS011;56605;51.516;6.742;2022-08-07T00:53:30;4.38;;;2.83;;
31284;SDS011;56605;51.516;6.742;2022-08-07T00:55:55;4.10;;;3.33;;
31284;SDS011;56605;51.516;6.742;2022-08-07T00:58:21;5.10;;;3.00;;
31284;SDS011;56605;51.516;6.742;2022-08-07T01:00:46;4.05;;;2.53;;
31284;SDS011;56605;51.516;6.742;2022-08-07T01:03:12;4.30;;;3.20;;
31284;SDS011;56605;51.516;6.742;2022-08-07T01:05:37;5.13;;;3.22;;
31284;SDS011;56605;51.516;6.742;2022-08-07T01:08:04;3.97;;;2.97;;
31284;SDS011;56605;51.516;6.742;2022-08-07T01:10:30;4.18;;;3.08;;
31284;SDS011;56605;51.516;6.742;2022-08-07T01:12:56;5.30;;;3.08;;
31284;SDS011;56605;51.516;6.742;2022-08-07T01:15:22;4.18;;;3.28;;
31284;SDS011;56605;51.516;6.742;2022-08-07T01:17:48;5.43;;;3.58;;
31284;SDS011;56605;51.516;6.742;2022-08-07T01:20:13;5.13;;;3.53;;
31284;SDS011;56605;51.516;6.742;2022-08-07T01:22:40;5.22;;;3.38;;
31284;SDS011;56605;51.516;6.742;2022-08-07T01:25:06;8.15;;;2.88;;
31284;SDS011;56605;51.516;6.742;2022-08-07T01:27:33;5.20;;;3.10;;
31284;SDS011;56605;51.516;6.742;2022-08-07T01:29:58;7.00;;;3.10;;
31284;SDS011;56605;51.516;6.742;2022-08-07T01:32:25;5.95;;;3.15;;
31284;SDS011;56605;51.516;6.742;2022-08-07T01:34:50;5.55;;;3.40;;
31284;SDS011;56605;51.516;6.742;2022-08-07T01:37:16;5.90;;;3.30;;
31284;SDS011;56605;51.516;6.742;2022-08-07T01:39:45;7.90;;;4.45;;
31284;SDS011;56605;51.516;6.742;2022-08-07T01:42:12;7.35;;;4.15;;
31284;SDS011;56605;51.516;6.742;2022-08-07T01:44:40;5.80;;;3.30;;
31284;SDS011;56605;51.516;6.742;2022-08-07T01:47:06;6.10;;;3.42;;
31284;SDS011;56605;51.516;6.742;2022-08-07T01:49:32;6.18;;;3.30;;
31284;SDS011;56605;51.516;6.742;2022-08-07T01:51:58;5.25;;;3.40;;
31284;SDS011;56605;51.516;6.742;2022-08-07T01:54:26;5.65;;;3.35;;
31284;SDS011;56605;51.516;6.742;2022-08-07T01:56:55;5.18;;;3.63;;
31284;SDS011;56605;51.516;6.742;2022-08-07T02:02:37;4.65;;;2.70;;
31284;SDS011;56605;51.516;6.742;2022-08-07T02:05:07;4.22;;;3.05;;
31284;SDS011;56605;51.516;6.742;2022-08-07T02:07:37;5.25;;;2.83;;
31284;SDS011;56605;51.516;6.742;2022-08-07T02:10:07;7.45;;;3.47;;
31284;SDS011;56605;51.516;6.742;2022-08-07T02:12:35;5.53;;;3.67;;
31284;SDS011;56605;51.516;6.742;2022-08-07T02:15:02;4.68;;;3.20;;
31284;SDS011;56605;51.516;6.742;2022-08-07T02:17:28;7.10;;;3.65;;
31284;SDS011;56605;51.516;6.742;2022-08-07T02:19:54;4.95;;;3.25;;
31284;SDS011;56605;51.516;6.742;2022-08-07T02:22:22;5.60;;;2.97;;
31284;SDS011;56605;51.516;6.742;2022-08-07T02:24:50;5.72;;;3.60;;
31284;SDS011;56605;51.516;6.742;2022-08-07T02:27:17;5.30;;;3.47;;
31284;SDS011;56605;51.516;6.742;2022-08-07T02:29:46;6.10;;;3.50;;
31284;SDS011;56605;51.516;6.742;2022-08-07T02:32:13;6.18;;;3.15;;
31284;SDS011;56605;51.516;6.742;2022-08-07T02:34:41;5.63;;;3.53;;
31284;SDS011;56605;51.516;6.742;2022-08-07T02:37:09;5.07;;;3.40;;
31284;SDS011;56605;51.516;6.742;2022-08-07T02:39:35;5.10;;;3.22;;
31284;SDS011;56605;51.516;6.742;2022-08-07T02:42:04;4.13;;;2.90;;
31284;SDS011;56605;51.516;6.742;2022-08-07T02:44:31;5.45;;;3.75;;
31284;SDS011;56605;51.516;6.742;2022-08-07T02:46:57;4.75;;;3.20;;
31284;SDS011;56605;51.516;6.742;2022-08-07T02:49:24;6.75;;;3.33;;
31284;SDS011;56605;51.516;6.742;2022-08-07T02:51:50;5.40;;;3.97;;
31284;SDS011;56605;51.516;6.742;2022-08-07T02:54:17;4.55;;;3.45;;
31284;SDS011;56605;51.516;6.742;2022-08-07T02:56:45;5.40;;;3.20;;
31284;SDS011;56605;51.516;6.742;2022-08-07T02:59:16;4.55;;;3.30;;
31284;SDS011;56605;51.516;6.742;2022-08-07T03:01:43;5.13;;;3.20;;
31284;SDS011;56605;51.516;6.742;2022-08-07T03:04:10;7.53;;;3.72;;
31284;SDS011;56605;51.516;6.742;2022-08-07T03:06:37;5.28;;;3.53;;
31284;SDS011;56605;51.516;6.742;2022-08-07T03:09:04;4.93;;;3.50;;
31284;SDS011;56605;51.516;6.742;2022-08-07T03:11:32;5.32;;;3.92;;
31284;SDS011;56605;51.516;6.742;2022-08-07T03:13:58;5.07;;;3.85;;
31284;SDS011;56605;51.516;6.742;2022-08-07T03:16:26;5.35;;;4.07;;
31284;SDS011;56605;51.516;6.742;2022-08-07T03:18:52;4.88;;;3.20;;
31284;SDS011;56605;51.516;6.742;2022-08-07T03:21:17;7.13;;;4.07;;
31284;SDS011;56605;51.516;6.742;2022-08-07T03:23:43;6.82;;;4.00;;
31284;SDS011;56605;51.516;6.742;2022-08-07T03:26:10;8.35;;;4.00;;
31284;SDS011;56605;51.516;6.742;2022-08-07T03:28:42;6.05;;;3.83;;
31284;SDS011;56605;51.516;6.742;2022-08-07T03:31:09;7.15;;;3.88;;
31284;SDS011;56605;51.516;6.742;2022-08-07T03:33:45;6.40;;;4.03;;
31284;SDS011;56605;51.516;6.742;2022-08-07T03:36:12;6.78;;;3.65;;
31284;SDS011;56605;51.516;6.742;2022-08-07T03:38:39;4.10;;;3.33;;
31284;SDS011;56605;51.516;6.742;2022-08-07T03:41:05;5.47;;;3.75;;
31284;SDS011;56605;51.516;6.742;2022-08-07T03:43:32;8.60;;;3.78;;
31284;SDS011;56605;51.516;6.742;2022-08-07T03:45:59;5.72;;;3.85;;
31284;SDS011;56605;51.516;6.742;2022-08-07T03:48:27;4.90;;;3.60;;
31284;SDS011;56605;51.516;6.742;2022-08-07T03:50:53;4.20;;;3.35;;
31284;SDS011;56605;51.516;6.742;2022-08-07T03:53:21;8.40;;;4.07;;
31284;SDS011;56605;51.516;6.742;2022-08-07T03:55:47;5.22;;;3.45;;
31284;SDS011;56605;51.516;6.742;2022-08-07T03:58:13;7.25;;;3.97;;
31284;SDS011;56605;51.516;6.742;2022-08-07T04:00:40;5.35;;;4.03;;
31284;SDS011;56605;51.516;6.742;2022-08-07T04:03:06;7.68;;;4.03;;
31284;SDS011;56605;51.516;6.742;2022-08-07T04:05:33;5.50;;;3.60;;
31284;SDS011;56605;51.516;6.742;2022-08-07T04:07:59;8.27;;;3.70;;
31284;SDS011;56605;51.516;6.742;2022-08-07T04:10:25;7.45;;;4.40;;
31284;SDS011;56605;51.516;6.742;2022-08-07T04:12:51;6.60;;;4.10;;
31284;SDS011;56605;51.516;6.742;2022-08-07T04:15:16;5.82;;;3.47;;
31284;SDS011;56605;51.516;6.742;2022-08-07T04:17:43;6.32;;;4.05;;
31284;SDS011;56605;51.516;6.742;2022-08-07T04:20:10;7.07;;;3.60;;
31284;SDS011;56605;51.516;6.742;2022-08-07T04:22:36;4.97;;;3.78;;
31284;SDS011;56605;51.516;6.742;2022-08-07T04:25:04;5.70;;;3.78;;
31284;SDS011;56605;51.516;6.742;2022-08-07T04:27:30;5.72;;;4.03;;
31284;SDS011;56605;51.516;6.742;2022-08-07T04:29:55;10.57;;;4.28;;
31284;SDS011;56605;51.516;6.742;2022-08-07T04:32:21;7.68;;;4.32;;
31284;SDS011;56605;51.516;6.742;2022-08-07T04:34:47;5.80;;;4.20;;
31284;SDS011;56605;51.516;6.742;2022-08-07T04:37:14;6.68;;;4.30;;
31284;SDS011;56605;51.516;6.742;2022-08-07T04:39:40;6.05;;;4.03;;
31284;SDS011;56605;51.516;6.742;2022-08-07T04:42:06;6.20;;;4.20;;
31284;SDS011;56605;51.516;6.742;2022-08-07T04:44:31;6.50;;;4.43;;
31284;SDS011;56605;51.516;6.742;2022-08-07T04:49:37;5.47;;;3.85;;
31284;SDS011;56605;51.516;6.742;2022-08-07T04:52:13;7.20;;;4.30;;
31284;SDS011;56605;51.516;6.742;2022-08-07T04:54:51;6.22;;;4.43;;
31284;SDS011;56605;51.516;6.742;2022-08-07T04:57:28;8.80;;;4.32;;
31284;SDS011;56605;51.516;6.742;2022-08-07T05:05:19;9.57;;;4.85;;
31284;SDS011;56605;51.516;6.742;2022-08-07T05:08:02;10.00;;;5.65;;
31284;SDS011;56605;51.516;6.742;2022-08-07T05:13:06;6.75;;;4.50;;
31284;SDS011;56605;51.516;6.742;2022-08-07T05:15:39;7.28;;;4.20;;
31284;SDS011;56605;51.516;6.742;2022-08-07T05:20:53;5.40;;;4.20;;
31284;SDS011;56605;51.516;6.742;2022-08-07T05:23:22;4.95;;;3.63;;
31284;SDS011;56605;51.516;6.742;2022-08-07T05:25:51;6.00;;;3.63;;
31284;SDS011;56605;51.516;6.742;2022-08-07T05:28:19;6.63;;;4.03;;
31284;SDS011;56605;51.516;6.742;2022-08-07T05:30:45;4.70;;;3.67;;
31284;SDS011;56605;51.516;6.742;2022-08-07T05:33:11;6.05;;;3.47;;
31284;SDS011;56605;51.516;6.742;2022-08-07T05:35:37;5.93;;;3.55;;
31284;SDS011;56605;51.516;6.742;2022-08-07T05:38:04;5.72;;;4.00;;
31284;SDS011;56605;51.516;6.742;2022-08-07T05:40:32;6.43;;;3.85;;
31284;SDS011;56605;51.516;6.742;2022-08-07T05:43:00;7.90;;;4.38;;
31284;SDS011;56605;51.516;6.742;2022-08-07T05:45:25;7.50;;;4.90;;
31284;SDS011;56605;51.516;6.742;2022-08-07T05:47:52;6.72;;;4.32;;
31284;SDS011;56605;51.516;6.742;2022-08-07T05:50:21;6.05;;;4.07;;
31284;SDS011;56605;51.516;6.742;2022-08-07T05:52:47;5.90;;;4.00;;
31284;SDS011;56605;51.516;6.742;2022-08-07T05:55:13;5.95;;;3.60;;
31284;SDS011;56605;51.516;6.742;2022-08-07T05:57:38;8.27;;;4.90;;
31284;SDS011;56605;51.516;6.742;2022-08-07T06:00:06;5.18;;;4.28;;
31284;SDS011;56605;51.516;6.742;2022-08-07T06:02:32;8.10;;;4.38;;
31284;SDS011;56605;51.516;6.742;2022-08-07T06:05:02;5.90;;;4.18;;
31284;SDS011;56605;51.516;6.742;2022-08-07T06:07:31;6.50;;;4.10;;
31284;SDS011;56605;51.516;6.742;2022-08-07T06:09:58;5.85;;;4.00;;
31284;SDS011;56605;51.516;6.742;2022-08-07T06:12:23;10.77;;;3.97;;
31284;SDS011;56605;51.516;6.742;2022-08-07T06:14:49;7.65;;;3.97;;
31284;SDS011;56605;51.516;6.742;2022-08-07T06:17:14;4.30;;;3.38;;
31284;SDS011;56605;51.516;6.742;2022-08-07T06:19:43;5.95;;;4.20;;
31284;SDS011;56605;51.516;6.742;2022-08-07T06:22:09;6.60;;;3.85;;
31284;SDS011;56605;51.516;6.742;2022-08-07T06:24:35;5.07;;;3.58;;
31284;SDS011;56605;51.516;6.742;2022-08-07T06:27:01;6.60;;;3.95;;
31284;SDS011;56605;51.516;6.742;2022-08-07T06:29:27;5.57;;;3.75;;
31284;SDS011;56605;51.516;6.742;2022-08-07T06:31:53;6.13;;;3.85;;
31284;SDS011;56605;51.516;6.742;2022-08-07T06:34:18;5.03;;;3.67;;
31284;SDS011;56605;51.516;6.742;2022-08-07T06:36:43;8.25;;;3.90;;
31284;SDS011;56605;51.516;6.742;2022-08-07T06:39:09;4.75;;;3.85;;
31284;SDS011;56605;51.516;6.742;2022-08-07T06:41:37;3.45;;;3.10;;
31284;SDS011;56605;51.516;6.742;2022-08-07T06:44:05;6.30;;;3.65;;
31284;SDS011;56605;51.516;6.742;2022-08-07T06:46:34;6.47;;;3.40;;
31284;SDS011;56605;51.516;6.742;2022-08-07T06:49:00;7.85;;;3.17;;
31284;SDS011;56605;51.516;6.742;2022-08-07T06:51:27;8.30;;;3.42;;
31284;SDS011;56605;51.516;6.742;2022-08-07T06:53:55;4.78;;;3.30;;
31284;SDS011;56605;51.516;6.742;2022-08-07T06:56:27;5.35;;;3.22;;
31284;SDS011;56605;51.516;6.742;2022-08-07T06:59:05;5.15;;;3.10;;
31284;SDS011;56605;51.516;6.742;2022-08-07T07:01:32;4.20;;;2.80;;
31284;SDS011;56605;51.516;6.742;2022-08-07T07:03:58;4.10;;;2.70;;
31284;SDS011;56605;51.516;6.742;2022-08-07T07:06:24;5.13;;;3.47;;
31284;SDS011;56605;51.516;6.742;2022-08-07T07:08:50;4.47;;;3.33;;
31284;SDS011;56605;51.516;6.742;2022-08-07T07:11:15;3.47;;;2.42;;
31284;SDS011;56605;51.516;6.742;2022-08-07T07:13:42;7.35;;;2.90;;
31284;SDS011;56605;51.516;6.742;2022-08-07T07:16:15;3.80;;;3.00;;
31284;SDS011;56605;51.516;6.742;2022-08-07T07:18:48;5.30;;;2.67;;
31284;SDS011;56605;51.516;6.742;2022-08-07T07:21:20;3.60;;;2.33;;
31284;SDS011;56605;51.516;6.742;2022-08-07T07:23:48;3.30;;;2.22;;
31284;SDS011;56605;51.516;6.742;2022-08-07T07:26:16;2.80;;;2.13;;
31284;SDS011;56605;51.516;6.742;2022-08-07T07:28:47;4.43;;;2.35;;
31284;SDS011;56605;51.516;6.742;2022-08-07T07:31:31;6.78;;;2.70;;
31284;SDS011;56605;51.516;6.742;2022-08-07T07:34:03;3.97;;;2.15;;
31284;SDS011;56605;51.516;6.742;2022-08-07T07:36:32;3.85;;;2.20;;
31284;SDS011;56605;51.516;6.742;2022-08-07T07:38:59;3.13;;;1.70;;
31284;SDS011;56605;51.516;6.742;2022-08-07T07:41:27;2.10;;;1.50;;
31284;SDS011;56605;51.516;6.742;2022-08-07T07:43:53;2.60;;;1.55;;
31284;SDS011;56605;51.516;6.742;2022-08-07T07:46:20;3.35;;;1.65;;
31284;SDS011;56605;51.516;6.742;2022-08-07T07:48:49;3.28;;;1.20;;
31284;SDS011;56605;51.516;6.742;2022-08-07T07:51:16;2.80;;;1.58;;
31284;SDS011;56605;51.516;6.742;2022-08-07T07:53:45;2.35;;;1.58;;
31284;SDS011;56605;51.516;6.742;2022-08-07T07:56:12;1.95;;;1.25;;
31284;SDS011;56605;51.516;6.742;2022-08-07T07:58:38;2.42;;;1.27;;
31284;SDS011;56605;51.516;6.742;2022-08-07T08:01:06;1.58;;;1.17;;
31284;SDS011;56605;51.516;6.742;2022-08-07T08:03:34;1.92;;;1.20;;
31284;SDS011;56605;51.516;6.742;2022-08-07T08:06:01;1.27;;;0.88;;
31284;SDS011;56605;51.516;6.742;2022-08-07T08:08:28;2.58;;;1.15;;
31284;SDS011;56605;51.516;6.742;2022-08-07T08:10:56;1.40;;;1.00;;
31284;SDS011;56605;51.516;6.742;2022-08-07T08:13:23;1.88;;;1.63;;
31284;SDS011;56605;51.516;6.742;2022-08-07T08:15:50;1.10;;;1.00;;
31284;SDS011;56605;51.516;6.742;2022-08-07T08:18:16;2.17;;;0.90;;
31284;SDS011;56605;51.516;6.742;2022-08-07T08:20:44;1.45;;;0.85;;
31284;SDS011;56605;51.516;6.742;2022-08-07T08:23:12;1.05;;;0.70;;
31284;SDS011;56605;51.516;6.742;2022-08-07T08:25:58;1.60;;;0.63;;
31284;SDS011;56605;51.516;6.742;2022-08-07T08:28:44;0.73;;;0.55;;
31284;SDS011;56605;51.516;6.742;2022-08-07T08:31:13;1.13;;;0.52;;
31284;SDS011;56605;51.516;6.742;2022-08-07T08:33:42;0.60;;;0.60;;
31284;SDS011;56605;51.516;6.742;2022-08-07T08:36:08;0.63;;;0.60;;
31284;SDS011;56605;51.516;6.742;2022-08-07T08:38:37;1.05;;;0.60;;
31284;SDS011;56605;51.516;6.742;2022-08-07T08:43:52;0.60;;;0.50;;
31284;SDS011;56605;51.516;6.742;2022-08-07T08:46:23;1.02;;;0.57;;
31284;SDS011;56605;51.516;6.742;2022-08-07T08:49:03;3.03;;;0.63;;
31284;SDS011;56605;51.516;6.742;2022-08-07T08:51:39;0.28;;;0.28;;
31284;SDS011;56605;51.516;6.742;2022-08-07T08:54:15;0.85;;;0.43;;
31284;SDS011;56605;51.516;6.742;2022-08-07T08:56:48;1.40;;;0.60;;
31284;SDS011;56605;51.516;6.742;2022-08-07T09:05:09;1.48;;;0.98;;
31284;SDS011;56605;51.516;6.742;2022-08-07T09:07:50;2.00;;;0.50;;
31284;SDS011;56605;51.516;6.742;2022-08-07T09:15:44;1.20;;;0.60;;
31284;SDS011;56605;51.516;6.742;2022-08-07T09:18:41;1.50;;;0.70;;
31284;SDS011;56605;51.516;6.742;2022-08-07T09:21:35;1.95;;;0.55;;
31284;SDS011;56605;51.516;6.742;2022-08-07T09:26:39;1.25;;;0.57;;
31284;SDS011;56605;51.516;6.742;2022-08-07T09:38:32;1.13;;;0.50;;
31284;SDS011;56605;51.516;6.742;2022-08-07T09:44:18;1.17;;;0.65;;
31284;SDS011;56605;51.516;6.742;2022-08-07T09:55:26;0.88;;;0.68;;
31284;SDS011;56605;51.516;6.742;2022-08-07T09:58:08;2.35;;;0.80;;
31284;SDS011;56605;51.516;6.742;2022-08-07T10:03:34;0.40;;;0.40;;
31284;SDS011;56605;51.516;6.742;2022-08-07T10:11:52;1.75;;;0.52;;
31284;SDS011;56605;51.516;6.742;2022-08-07T10:28:44;1.48;;;0.57;;
31284;SDS011;56605;51.516;6.742;2022-08-07T10:31:28;5.70;;;4.03;;
31284;SDS011;56605;51.516;6.742;2022-08-07T10:45:37;1.00;;;0.70;;
31284;SDS011;56605;51.516;6.742;2022-08-07T11:08:01;1.50;;;1.27;;
31284;SDS011;56605;51.516;6.742;2022-08-07T11:13:33;3.40;;;2.05;;
31284;SDS011;56605;51.516;6.742;2022-08-07T11:16:22;3.75;;;1.50;;
31284;SDS011;56605;51.516;6.742;2022-08-07T11:22:24;0.68;;;0.68;;
31284;SDS011;56605;51.516;6.742;2022-08-07T11:25:02;1.90;;;0.60;;
31284;SDS011;56605;51.516;6.742;2022-08-07T11:27:41;0.90;;;0.60;;
31284;SDS011;56605;51.516;6.742;2022-08-07T11:30:19;0.57;;;0.40;;
31284;SDS011;56605;51.516;6.742;2022-08-07T11:32:56;1.20;;;0.60;;
31284;SDS011;56605;51.516;6.742;2022-08-07T11:35:32;2.67;;;0.57;;
31284;SDS011;56605;51.516;6.742;2022-08-07T11:38:05;1.48;;;1.35;;
31284;SDS011;56605;51.516;6.742;2022-08-07T11:40:57;2.28;;;1.05;;
31284;SDS011;56605;51.516;6.742;2022-08-07T11:43:37;2.10;;;0.80;;
31284;SDS011;56605;51.516;6.742;2022-08-07T11:46:26;1.55;;;0.63;;
31284;SDS011;56605;51.516;6.742;2022-08-07T11:49:05;6.93;;;5.78;;
31284;SDS011;56605;51.516;6.742;2022-08-07T12:05:19;0.82;;;0.63;;
31284;SDS011;56605;51.516;6.742;2022-08-07T12:07:58;2.00;;;0.57;;
31284;SDS011;56605;51.516;6.742;2022-08-07T12:10:48;1.23;;;1.10;;
31284;SDS011;56605;51.516;6.742;2022-08-07T12:13:26;2.00;;;1.00;;
31284;SDS011;56605;51.516;6.742;2022-08-07T12:16:01;2.15;;;0.75;;
31284;SDS011;56605;51.516;6.742;2022-08-07T12:21:23;0.98;;;0.47;;
31284;SDS011;56605;51.516;6.742;2022-08-07T12:24:02;2.47;;;0.60;;
31284;SDS011;56605;51.516;6.742;2022-08-07T12:26:44;0.52;;;0.50;;
31284;SDS011;56605;51.516;6.742;2022-08-07T12:29:34;2.35;;;0.70;;
31284;SDS011;56605;51.516;6.742;2022-08-07T12:34:40;1.17;;;0.40;;
31284;SDS011;56605;51.516;6.742;2022-08-07T12:37:09;0.90;;;0.63;;
31284;SDS011;56605;51.516;6.742;2022-08-07T12:39:35;0.57;;;0.47;;
31284;SDS011;56605;51.516;6.742;2022-08-07T12:42:03;0.52;;;0.40;;
31284;SDS011;56605;51.516;6.742;2022-08-07T12:44:30;1.90;;;0.50;;
31284;SDS011;56605;51.516;6.742;2022-08-07T12:52:55;0.43;;;0.38;;
31284;SDS011;56605;51.516;6.742;2022-08-07T12:57:56;0.88;;;0.63;;
31284;SDS011;56605;51.516;6.742;2022-08-07T13:00:28;2.13;;;0.50;;
31284;SDS011;56605;51.516;6.742;2022-08-07T13:03:21;1.95;;;0.70;;
31284;SDS011;56605;51.516;6.742;2022-08-07T13:08:47;0.95;;;0.50;;
31284;SDS011;56605;51.516;6.742;2022-08-07T13:12:06;1.92;;;0.85;;
31284;SDS011;56605;51.516;6.742;2022-08-07T13:14:28;1.98;;;0.70;;
31284;SDS011;56605;51.516;6.742;2022-08-07T13:19:41;0.60;;;0.50;;
31284;SDS011;56605;51.516;6.742;2022-08-07T13:22:16;2.28;;;0.70;;
31284;SDS011;56605;51.516;6.742;2022-08-07T13:24:59;0.80;;;0.60;;
31284;SDS011;56605;51.516;6.742;2022-08-07T13:27:29;1.67;;;0.60;;
31284;SDS011;56605;51.516;6.742;2022-08-07T13:29:57;1.27;;;0.60;;
31284;SDS011;56605;51.516;6.742;2022-08-07T13:32:26;0.55;;;0.55;;
31284;SDS011;56605;51.516;6.742;2022-08-07T13:34:59;1.05;;;0.80;;
31284;SDS011;56605;51.516;6.742;2022-08-07T13:42:47;2.38;;;0.73;;
31284;SDS011;56605;51.516;6.742;2022-08-07T13:45:14;0.93;;;0.50;;
31284;SDS011;56605;51.516;6.742;2022-08-07T13:47:42;0.50;;;0.50;;
31284;SDS011;56605;51.516;6.742;2022-08-07T13:50:11;5.13;;;2.22;;
31284;SDS011;56605;51.516;6.742;2022-08-07T13:52:38;1.45;;;0.60;;
31284;SDS011;56605;51.516;6.742;2022-08-07T13:55:16;0.90;;;0.68;;
31284;SDS011;56605;51.516;6.742;2022-08-07T13:57:44;0.50;;;0.50;;
31284;SDS011;56605;51.516;6.742;2022-08-07T14:00:13;0.55;;;0.55;;
31284;SDS011;56605;51.516;6.742;2022-08-07T14:02:41;1.45;;;0.93;;
31284;SDS011;56605;51.516;6.742;2022-08-07T14:05:08;1.65;;;0.77;;
31284;SDS011;56605;51.516;6.742;2022-08-07T14:07:38;1.92;;;0.60;;
31284;SDS011;56605;51.516;6.742;2022-08-07T14:10:07;0.95;;;0.60;;
31284;SDS011;56605;51.516;6.742;2022-08-07T14:12:40;1.30;;;0.60;;
31284;SDS011;56605;51.516;6.742;2022-08-07T14:17:42;0.73;;;0.70;;
31284;SDS011;56605;51.516;6.742;2022-08-07T14:20:15;1.98;;;1.10;;
31284;SDS011;56605;51.516;6.742;2022-08-07T14:22:48;1.58;;;0.52;;
31284;SDS011;56605;51.516;6.742;2022-08-07T14:25:17;0.52;;;0.52;;
31284;SDS011;56605;51.516;6.742;2022-08-07T14:27:49;0.50;;;0.50;;
31284;SDS011;56605;51.516;6.742;2022-08-07T14:30:16;0.50;;;0.50;;
31284;SDS011;56605;51.516;6.742;2022-08-07T14:32:55;1.52;;;0.70;;
31284;SDS011;56605;51.516;6.742;2022-08-07T14:35:29;0.95;;;0.80;;
31284;SDS011;56605;51.516;6.742;2022-08-07T14:37:57;1.42;;;0.60;;
31284;SDS011;56605;51.516;6.742;2022-08-07T14:40:25;2.00;;;0.93;;
31284;SDS011;56605;51.516;6.742;2022-08-07T14:42:52;0.60;;;0.60;;
31284;SDS011;56605;51.516;6.742;2022-08-07T14:45:21;1.85;;;0.82;;
31284;SDS011;56605;51.516;6.742;2022-08-07T14:47:53;0.75;;;0.75;;
31284;SDS011;56605;51.516;6.742;2022-08-07T14:50:22;0.60;;;0.50;;
31284;SDS011;56605;51.516;6.742;2022-08-07T14:52:51;1.02;;;0.80;;
31284;SDS011;56605;51.516;6.742;2022-08-07T14:55:18;4.57;;;1.83;;
31284;SDS011;56605;51.516;6.742;2022-08-07T14:57:48;1.15;;;0.90;;
31284;SDS011;56605;51.516;6.742;2022-08-07T15:00:15;2.03;;;1.25;;
31284;SDS011;56605;51.516;6.742;2022-08-07T15:02:43;1.02;;;0.68;;
31284;SDS011;56605;51.516;6.742;2022-08-07T15:05:13;1.90;;;1.10;;
31284;SDS011;56605;51.516;6.742;2022-08-07T15:07:41;2.00;;;0.70;;
31284;SDS011;56605;51.516;6.742;2022-08-07T15:10:09;0.95;;;0.70;;
31284;SDS011;56605;51.516;6.742;2022-08-07T15:12:41;2.88;;;0.60;;
31284;SDS011;56605;51.516;6.742;2022-08-07T15:15:09;1.73;;;0.88;;
31284;SDS011;56605;51.516;6.742;2022-08-07T15:17:39;0.68;;;0.68;;
31284;SDS011;56605;51.516;6.742;2022-08-07T15:20:11;1.23;;;0.70;;
31284;SDS011;56605;51.516;6.742;2022-08-07T15:22:44;0.60;;;0.60;;
31284;SDS011;56605;51.516;6.742;2022-08-07T15:25:13;1.30;;;0.80;;
31284;SDS011;56605;51.516;6.742;2022-08-07T15:27:43;0.73;;;0.70;;
31284;SDS011;56605;51.516;6.742;2022-08-07T15:30:10;1.63;;;0.60;;
31284;SDS011;56605;51.516;6.742;2022-08-07T15:32:44;0.90;;;0.50;;
31284;SDS011;56605;51.516;6.742;2022-08-07T15:35:14;0.60;;;0.60;;
31284;SDS011;56605;51.516;6.742;2022-08-07T15:37:41;0.80;;;0.50;;
31284;SDS011;56605;51.516;6.742;2022-08-07T15:40:12;1.15;;;0.70;;
31284;SDS011;56605;51.516;6.742;2022-08-07T15:45:05;2.25;;;0.80;;
31284;SDS011;56605;51.516;6.742;2022-08-07T15:47:34;1.75;;;0.77;;
31284;SDS011;56605;51.516;6.742;2022-08-07T15:50:03;1.42;;;0.70;;
31284;SDS011;56605;51.516;6.742;2022-08-07T15:52:31;1.20;;;0.70;;
31284;SDS011;56605;51.516;6.742;2022-08-07T15:54:59;2.67;;;0.70;;
31284;SDS011;56605;51.516;6.742;2022-08-07T15:57:27;1.90;;;0.70;;
31284;SDS011;56605;51.516;6.742;2022-08-07T15:59:55;0.75;;;0.65;;
31284;SDS011;56605;51.516;6.742;2022-08-07T16:02:24;2.67;;;0.75;;
31284;SDS011;56605;51.516;6.742;2022-08-07T16:04:57;1.02;;;0.80;;
31284;SDS011;56605;51.516;6.742;2022-08-07T16:07:26;0.70;;;0.70;;
31284;SDS011;56605;51.516;6.742;2022-08-07T16:10:07;1.00;;;0.85;;
31284;SDS011;56605;51.516;6.742;2022-08-07T16:23:58;1.60;;;0.90;;
31284;SDS011;56605;51.516;6.742;2022-08-07T16:26:37;3.28;;;1.48;;
31284;SDS011;56605;51.516;6.742;2022-08-07T16:32:08;2.25;;;1.00;;
31284;SDS011;56605;51.516;6.742;2022-08-07T16:43:11;1.30;;;1.00;;
31284;SDS011;56605;51.516;6.742;2022-08-07T16:48:50;1.25;;;0.95;;
31284;SDS011;56605;51.516;6.742;2022-08-07T16:51:39;1.05;;;0.85;;
31284;SDS011;56605;51.516;6.742;2022-08-07T16:57:04;1.42;;;0.82;;
31284;SDS011;56605;51.516;6.742;2022-08-07T17:10:18;1.83;;;0.90;;
31284;SDS011;56605;51.516;6.742;2022-08-07T17:21:00;4.40;;;2.10;;
31284;SDS011;56605;51.516;6.742;2022-08-07T17:23:36;5.00;;;2.28;;
31284;SDS011;56605;51.516;6.742;2022-08-07T17:29:03;2.15;;;1.00;;
31284;SDS011;56605;51.516;6.742;2022-08-07T17:34:00;1.52;;;1.13;;
31284;SDS011;56605;51.516;6.742;2022-08-07T17:36:33;1.45;;;1.08;;
31284;SDS011;56605;51.516;6.742;2022-08-07T17:39:01;1.52;;;0.95;;
31284;SDS011;56605;51.516;6.742;2022-08-07T17:44:13;1.20;;;0.80;;
31284;SDS011;56605;51.516;6.742;2022-08-07T17:46:46;1.10;;;0.90;;
31284;SDS011;56605;51.516;6.742;2022-08-07T17:49:21;2.90;;;1.20;;
31284;SDS011;56605;51.516;6.742;2022-08-07T17:55:07;3.00;;;1.45;;
31284;SDS011;56605;51.516;6.742;2022-08-07T17:57:45;1.92;;;1.73;;
31284;SDS011;56605;51.516;6.742;2022-08-07T18:00:16;2.03;;;1.80;;
31284;SDS011;56605;51.516;6.742;2022-08-07T18:02:52;1.10;;;1.00;;
31284;SDS011;56605;51.516;6.742;2022-08-07T18:07:59;4.45;;;1.80;;
31284;SDS011;56605;51.516;6.742;2022-08-07T18:13:15;3.00;;;1.55;;
31284;SDS011;56605;51.516;6.742;2022-08-07T18:18:33;2.17;;;1.13;;
31284;SDS011;56605;51.516;6.742;2022-08-07T18:21:08;2.72;;;2.00;;
31284;SDS011;56605;51.516;6.742;2022-08-07T18:26:21;1.20;;;1.10;;
31284;SDS011;56605;51.516;6.742;2022-08-07T18:29:02;1.95;;;1.48;;
31284;SDS011;56605;51.516;6.742;2022-08-07T18:31:47;1.73;;;1.20;;
31284;SDS011;56605;51.516;6.742;2022-08-07T18:37:32;1.15;;;0.90;;
31284;SDS011;56605;51.516;6.742;2022-08-07T18:40:28;1.33;;;1.10;;
31284;SDS011;56605;51.516;6.742;2022-08-07T18:43:08;1.75;;;1.30;;
31284;SDS011;56605;51.516;6.742;2022-08-07T18:48:26;3.35;;;1.20;;
31284;SDS011;56605;51.516;6.742;2022-08-07T18:51:20;1.45;;;1.02;;
31284;SDS011;56605;51.516;6.742;2022-08-07T18:56:42;5.05;;;1.83;;
31284;SDS011;56605;51.516;6.742;2022-08-07T18:59:26;5.45;;;1.20;;
31284;SDS011;56605;51.516;6.742;2022-08-07T19:02:05;1.00;;;0.90;;